sensor_id;sensor_type;location;lat;lon;timestamp;temperature;humidity
25440;DHT22;13365;52.208;5.488;2023-02-10T00:00:04;6.60;99.90
25440;DHT22;13365;52.208;5.488;2023-02-10T00:02:30;6.50;99.90
25440;DHT22;13365;52.208;5.488;2023-02-10T00:04:55;6.20;99.90
25440;DHT22;13365;52.208;5.488;2023-02-10T00:07:21;6.10;99.90
25440;DHT22;13365;52.208;5.488;2023-02-10T00:09:48;6.10;99.90
25440;DHT22;13365;52.208;5.488;2023-02-10T00:12:14;6.30;99.90
25440;DHT22;13365;52.208;5.488;2023-02-10T00:14:40;6.30;99.90
25440;DHT22;13365;52.208;5.488;2023-02-10T00:17:05;6.20;99.90
25440;DHT22;13365;52.208;5.488;2023-02-10T00:19:31;6.10;99.90
25440;DHT22;13365;52.208;5.488;2023-02-10T00:21:59;6.00;99.90
25440;DHT22;13365;52.208;5.488;2023-02-10T00:24:25;6.10;99.90
25440;DHT22;13365;52.208;5.488;2023-02-10T00:26:51;6.70;99.90
25440;DHT22;13365;52.208;5.488;2023-02-10T00:29:17;7.10;99.90
25440;DHT22;13365;52.208;5.488;2023-02-10T00:31:43;7.40;99.90
25440;DHT22;13365;52.208;5.488;2023-02-10T00:34:14;7.60;99.90
25440;DHT22;13365;52.208;5.488;2023-02-10T00:36:40;7.50;99.00
25440;DHT22;13365;52.208;5.488;2023-02-10T00:39:06;7.40;98.90
25440;DHT22;13365;52.208;5.488;2023-02-10T00:41:31;7.40;98.90
25440;DHT22;13365;52.208;5.488;2023-02-10T00:43:57;7.30;99.10
25440;DHT22;13365;52.208;5.488;2023-02-10T00:46:23;7.10;99.90
25440;DHT22;13365;52.208;5.488;2023-02-10T00:48:49;7.20;99.90
25440;DHT22;13365;52.208;5.488;2023-02-10T00:51:16;7.30;99.90
25440;DHT22;13365;52.208;5.488;2023-02-10T00:53:42;7.30;99.70
25440;DHT22;13365;52.208;5.488;2023-02-10T00:56:10;7.30;99.40
25440;DHT22;13365;52.208;5.488;2023-02-10T00:58:36;7.20;99.30
25440;DHT22;13365;52.208;5.488;2023-02-10T01:01:02;7.10;99.40
25440;DHT22;13365;52.208;5.488;2023-02-10T01:03:28;7.00;99.90
25440;DHT22;13365;52.208;5.488;2023-02-10T01:05:53;7.00;99.90
25440;DHT22;13365;52.208;5.488;2023-02-10T01:08:19;7.20;99.90
25440;DHT22;13365;52.208;5.488;2023-02-10T01:10:44;7.30;99.70
25440;DHT22;13365;52.208;5.488;2023-02-10T01:13:12;7.40;99.50
25440;DHT22;13365;52.208;5.488;2023-02-10T01:15:45;7.80;99.30
25440;DHT22;13365;52.208;5.488;2023-02-10T01:18:11;8.00;98.10
25440;DHT22;13365;52.208;5.488;2023-02-10T01:20:41;8.00;97.30
25440;DHT22;13365;52.208;5.488;2023-02-10T01:23:07;8.10;97.10
25440;DHT22;13365;52.208;5.488;2023-02-10T01:25:34;8.10;96.50
25440;DHT22;13365;52.208;5.488;2023-02-10T01:27:59;8.10;96.00
25440;DHT22;13365;52.208;5.488;2023-02-10T01:30:25;8.00;95.40
25440;DHT22;13365;52.208;5.488;2023-02-10T01:32:54;8.00;95.20
25440;DHT22;13365;52.208;5.488;2023-02-10T01:35:20;7.80;95.20
25440;DHT22;13365;52.208;5.488;2023-02-10T01:37:45;7.90;95.10
25440;DHT22;13365;52.208;5.488;2023-02-10T01:40:11;7.90;94.60
25440;DHT22;13365;52.208;5.488;2023-02-10T01:42:37;7.90;94.30
25440;DHT22;13365;52.208;5.488;2023-02-10T01:47:47;7.60;94.10
25440;DHT22;13365;52.208;5.488;2023-02-10T01:50:15;7.70;93.90
25440;DHT22;13365;52.208;5.488;2023-02-10T01:52:43;7.50;93.30
25440;DHT22;13365;52.208;5.488;2023-02-10T01:55:15;7.40;93.50
25440;DHT22;13365;52.208;5.488;2023-02-10T01:57:43;7.20;93.40
25440;DHT22;13365;52.208;5.488;2023-02-10T02:00:11;7.20;93.60
25440;DHT22;13365;52.208;5.488;2023-02-10T02:02:37;7.00;93.60
25440;DHT22;13365;52.208;5.488;2023-02-10T02:05:06;6.90;93.30
25440;DHT22;13365;52.208;5.488;2023-02-10T02:07:34;6.90;93.60
25440;DHT22;13365;52.208;5.488;2023-02-10T02:10:01;6.90;93.70
25440;DHT22;13365;52.208;5.488;2023-02-10T02:15:39;6.80;93.70
25440;DHT22;13365;52.208;5.488;2023-02-10T02:23:28;6.60;93.60
25440;DHT22;13365;52.208;5.488;2023-02-10T02:26:33;6.60;93.50
25440;DHT22;13365;52.208;5.488;2023-02-10T02:31:47;6.60;93.40
25440;DHT22;13365;52.208;5.488;2023-02-10T02:34:17;6.50;93.40
25440;DHT22;13365;52.208;5.488;2023-02-10T02:36:56;6.50;93.40
25440;DHT22;13365;52.208;5.488;2023-02-10T02:39:23;6.40;93.50
25440;DHT22;13365;52.208;5.488;2023-02-10T02:42:06;6.50;93.60
25440;DHT22;13365;52.208;5.488;2023-02-10T02:44:36;6.50;93.60
25440;DHT22;13365;52.208;5.488;2023-02-10T02:47:22;6.50;93.80
25440;DHT22;13365;52.208;5.488;2023-02-10T02:50:19;6.50;94.00
25440;DHT22;13365;52.208;5.488;2023-02-10T03:00:49;6.40;93.70
25440;DHT22;13365;52.208;5.488;2023-02-10T03:03:16;6.30;93.50
25440;DHT22;13365;52.208;5.488;2023-02-10T03:05:42;6.40;93.80
25440;DHT22;13365;52.208;5.488;2023-02-10T03:08:08;6.40;93.80
25440;DHT22;13365;52.208;5.488;2023-02-10T03:10:34;6.40;93.80
25440;DHT22;13365;52.208;5.488;2023-02-10T03:12:59;6.40;93.80
25440;DHT22;13365;52.208;5.488;2023-02-10T03:15:25;6.40;93.70
25440;DHT22;13365;52.208;5.488;2023-02-10T03:17:50;6.40;93.70
25440;DHT22;13365;52.208;5.488;2023-02-10T03:20:16;6.40;93.70
25440;DHT22;13365;52.208;5.488;2023-02-10T03:22:42;6.40;93.80
25440;DHT22;13365;52.208;5.488;2023-02-10T03:25:08;6.40;93.80
25440;DHT22;13365;52.208;5.488;2023-02-10T03:27:34;6.40;93.90
25440;DHT22;13365;52.208;5.488;2023-02-10T03:29:59;6.50;94.00
25440;DHT22;13365;52.208;5.488;2023-02-10T03:32:25;6.50;93.90
25440;DHT22;13365;52.208;5.488;2023-02-10T03:34:50;6.40;93.90
25440;DHT22;13365;52.208;5.488;2023-02-10T03:37:16;6.50;94.00
25440;DHT22;13365;52.208;5.488;2023-02-10T03:39:41;6.50;94.00
25440;DHT22;13365;52.208;5.488;2023-02-10T03:42:07;6.40;94.00
25440;DHT22;13365;52.208;5.488;2023-02-10T03:44:32;6.50;94.10
25440;DHT22;13365;52.208;5.488;2023-02-10T03:46:58;6.30;94.10
25440;DHT22;13365;52.208;5.488;2023-02-10T03:49:24;6.30;94.50
25440;DHT22;13365;52.208;5.488;2023-02-10T03:51:49;6.40;94.70
25440;DHT22;13365;52.208;5.488;2023-02-10T03:54:15;6.40;94.60
25440;DHT22;13365;52.208;5.488;2023-02-10T03:56:41;6.50;94.70
25440;DHT22;13365;52.208;5.488;2023-02-10T03:59:06;6.40;94.50
25440;DHT22;13365;52.208;5.488;2023-02-10T04:01:32;6.50;94.50
25440;DHT22;13365;52.208;5.488;2023-02-10T04:03:58;6.50;94.40
25440;DHT22;13365;52.208;5.488;2023-02-10T04:06:24;6.50;94.40
25440;DHT22;13365;52.208;5.488;2023-02-10T04:08:49;6.40;94.50
25440;DHT22;13365;52.208;5.488;2023-02-10T04:11:15;6.40;94.70
25440;DHT22;13365;52.208;5.488;2023-02-10T04:13:41;6.30;94.70
25440;DHT22;13365;52.208;5.488;2023-02-10T04:16:12;6.50;94.90
25440;DHT22;13365;52.208;5.488;2023-02-10T04:18:38;6.40;94.60
25440;DHT22;13365;52.208;5.488;2023-02-10T04:21:06;6.40;94.30
25440;DHT22;13365;52.208;5.488;2023-02-10T04:23:32;6.30;94.00
25440;DHT22;13365;52.208;5.488;2023-02-10T04:25:58;6.30;94.10
25440;DHT22;13365;52.208;5.488;2023-02-10T04:28:24;6.20;94.00
25440;DHT22;13365;52.208;5.488;2023-02-10T04:30:56;6.30;94.40
25440;DHT22;13365;52.208;5.488;2023-02-10T04:33:23;6.30;94.40
25440;DHT22;13365;52.208;5.488;2023-02-10T04:35:51;6.30;94.40
25440;DHT22;13365;52.208;5.488;2023-02-10T04:38:17;6.40;94.40
25440;DHT22;13365;52.208;5.488;2023-02-10T04:40:43;6.40;94.30
25440;DHT22;13365;52.208;5.488;2023-02-10T04:43:09;6.50;94.10
25440;DHT22;13365;52.208;5.488;2023-02-10T04:45:36;6.50;94.20
25440;DHT22;13365;52.208;5.488;2023-02-10T04:48:01;6.40;94.30
25440;DHT22;13365;52.208;5.488;2023-02-10T04:50:27;6.30;94.10
25440;DHT22;13365;52.208;5.488;2023-02-10T04:52:52;6.30;94.30
25440;DHT22;13365;52.208;5.488;2023-02-10T04:55:18;6.40;94.40
25440;DHT22;13365;52.208;5.488;2023-02-10T04:57:44;6.40;94.40
25440;DHT22;13365;52.208;5.488;2023-02-10T05:00:10;6.40;94.50
25440;DHT22;13365;52.208;5.488;2023-02-10T05:02:36;6.40;94.50
25440;DHT22;13365;52.208;5.488;2023-02-10T05:05:02;6.40;94.70
25440;DHT22;13365;52.208;5.488;2023-02-10T05:07:27;6.40;94.70
25440;DHT22;13365;52.208;5.488;2023-02-10T05:09:53;6.50;94.90
25440;DHT22;13365;52.208;5.488;2023-02-10T05:12:18;6.50;94.80
25440;DHT22;13365;52.208;5.488;2023-02-10T05:14:44;6.50;94.90
25440;DHT22;13365;52.208;5.488;2023-02-10T05:17:10;6.50;94.90
25440;DHT22;13365;52.208;5.488;2023-02-10T05:19:35;6.40;94.80
25440;DHT22;13365;52.208;5.488;2023-02-10T05:22:01;6.50;94.90
25440;DHT22;13365;52.208;5.488;2023-02-10T05:24:26;6.50;95.00
25440;DHT22;13365;52.208;5.488;2023-02-10T05:26:52;6.70;94.90
25440;DHT22;13365;52.208;5.488;2023-02-10T05:29:17;6.60;94.80
25440;DHT22;13365;52.208;5.488;2023-02-10T05:31:43;6.50;94.70
25440;DHT22;13365;52.208;5.488;2023-02-10T05:34:08;6.40;94.80
25440;DHT22;13365;52.208;5.488;2023-02-10T05:36:34;6.40;94.90
25440;DHT22;13365;52.208;5.488;2023-02-10T05:38:59;6.40;95.20
25440;DHT22;13365;52.208;5.488;2023-02-10T05:41:43;6.50;95.30
25440;DHT22;13365;52.208;5.488;2023-02-10T05:44:09;6.50;95.20
25440;DHT22;13365;52.208;5.488;2023-02-10T05:46:34;6.60;95.30
25440;DHT22;13365;52.208;5.488;2023-02-10T05:49:00;6.60;95.10
25440;DHT22;13365;52.208;5.488;2023-02-10T05:51:25;6.70;95.20
25440;DHT22;13365;52.208;5.488;2023-02-10T05:53:51;6.60;95.10
25440;DHT22;13365;52.208;5.488;2023-02-10T05:56:17;6.60;95.20
25440;DHT22;13365;52.208;5.488;2023-02-10T05:58:42;6.70;95.20
25440;DHT22;13365;52.208;5.488;2023-02-10T06:01:09;6.60;95.20
25440;DHT22;13365;52.208;5.488;2023-02-10T06:03:34;6.60;95.10
25440;DHT22;13365;52.208;5.488;2023-02-10T06:06:00;6.50;95.10
25440;DHT22;13365;52.208;5.488;2023-02-10T06:08:25;6.40;95.30
25440;DHT22;13365;52.208;5.488;2023-02-10T06:10:52;6.30;95.40
25440;DHT22;13365;52.208;5.488;2023-02-10T06:13:18;6.40;95.70
25440;DHT22;13365;52.208;5.488;2023-02-10T06:15:43;6.40;95.70
25440;DHT22;13365;52.208;5.488;2023-02-10T06:18:09;6.40;95.50
25440;DHT22;13365;52.208;5.488;2023-02-10T06:20:34;6.40;95.50
25440;DHT22;13365;52.208;5.488;2023-02-10T06:23:00;6.50;95.50
25440;DHT22;13365;52.208;5.488;2023-02-10T06:25:25;6.50;95.50
25440;DHT22;13365;52.208;5.488;2023-02-10T06:27:51;6.40;95.40
25440;DHT22;13365;52.208;5.488;2023-02-10T06:30:16;6.40;95.40
25440;DHT22;13365;52.208;5.488;2023-02-10T06:32:42;6.50;95.40
25440;DHT22;13365;52.208;5.488;2023-02-10T06:35:07;6.50;95.40
25440;DHT22;13365;52.208;5.488;2023-02-10T06:37:33;6.60;95.40
25440;DHT22;13365;52.208;5.488;2023-02-10T06:39:59;6.60;95.20
25440;DHT22;13365;52.208;5.488;2023-02-10T06:42:24;6.50;95.10
25440;DHT22;13365;52.208;5.488;2023-02-10T06:44:50;6.50;95.30
25440;DHT22;13365;52.208;5.488;2023-02-10T06:47:15;6.50;95.40
25440;DHT22;13365;52.208;5.488;2023-02-10T06:49:41;6.40;95.40
25440;DHT22;13365;52.208;5.488;2023-02-10T06:52:06;6.40;95.50
25440;DHT22;13365;52.208;5.488;2023-02-10T06:54:32;6.40;95.60
25440;DHT22;13365;52.208;5.488;2023-02-10T06:56:57;6.50;95.60
25440;DHT22;13365;52.208;5.488;2023-02-10T06:59:23;6.50;95.50
25440;DHT22;13365;52.208;5.488;2023-02-10T07:01:48;6.40;95.30
25440;DHT22;13365;52.208;5.488;2023-02-10T07:04:14;6.50;95.30
25440;DHT22;13365;52.208;5.488;2023-02-10T07:06:39;6.50;95.30
25440;DHT22;13365;52.208;5.488;2023-02-10T07:09:05;6.40;95.30
25440;DHT22;13365;52.208;5.488;2023-02-10T07:11:32;6.50;95.50
25440;DHT22;13365;52.208;5.488;2023-02-10T07:13:58;6.50;95.90
25440;DHT22;13365;52.208;5.488;2023-02-10T07:16:23;6.50;95.60
25440;DHT22;13365;52.208;5.488;2023-02-10T07:18:49;6.50;95.80
25440;DHT22;13365;52.208;5.488;2023-02-10T07:21:14;6.50;95.90
25440;DHT22;13365;52.208;5.488;2023-02-10T07:23:40;6.60;96.10
25440;DHT22;13365;52.208;5.488;2023-02-10T07:26:06;6.70;96.10
25440;DHT22;13365;52.208;5.488;2023-02-10T07:28:32;6.70;96.20
25440;DHT22;13365;52.208;5.488;2023-02-10T07:30:58;6.90;96.60
25440;DHT22;13365;52.208;5.488;2023-02-10T07:33:24;6.90;96.00
25440;DHT22;13365;52.208;5.488;2023-02-10T07:35:49;7.00;96.10
25440;DHT22;13365;52.208;5.488;2023-02-10T07:38:15;7.10;96.00
25440;DHT22;13365;52.208;5.488;2023-02-10T07:40:41;7.20;96.10
25440;DHT22;13365;52.208;5.488;2023-02-10T07:43:06;7.30;95.90
25440;DHT22;13365;52.208;5.488;2023-02-10T07:45:32;7.40;95.80
25440;DHT22;13365;52.208;5.488;2023-02-10T07:47:58;7.40;95.70
25440;DHT22;13365;52.208;5.488;2023-02-10T07:50:24;7.40;95.70
25440;DHT22;13365;52.208;5.488;2023-02-10T07:52:50;7.40;95.60
25440;DHT22;13365;52.208;5.488;2023-02-10T07:55:15;7.40;95.60
25440;DHT22;13365;52.208;5.488;2023-02-10T07:57:41;7.40;95.70
25440;DHT22;13365;52.208;5.488;2023-02-10T08:00:08;7.40;95.80
25440;DHT22;13365;52.208;5.488;2023-02-10T08:02:33;7.40;95.80
25440;DHT22;13365;52.208;5.488;2023-02-10T08:04:59;7.40;95.70
25440;DHT22;13365;52.208;5.488;2023-02-10T08:07:25;7.40;95.80
25440;DHT22;13365;52.208;5.488;2023-02-10T08:09:51;7.30;95.80
25440;DHT22;13365;52.208;5.488;2023-02-10T08:12:16;7.20;96.10
25440;DHT22;13365;52.208;5.488;2023-02-10T08:14:42;7.20;96.20
25440;DHT22;13365;52.208;5.488;2023-02-10T08:17:07;7.10;96.40
25440;DHT22;13365;52.208;5.488;2023-02-10T08:19:33;7.30;96.50
25440;DHT22;13365;52.208;5.488;2023-02-10T08:22:02;7.30;96.50
25440;DHT22;13365;52.208;5.488;2023-02-10T08:24:28;7.30;96.50
25440;DHT22;13365;52.208;5.488;2023-02-10T08:26:54;7.40;96.70
25440;DHT22;13365;52.208;5.488;2023-02-10T08:29:20;7.20;96.80
25440;DHT22;13365;52.208;5.488;2023-02-10T08:31:49;7.20;97.20
25440;DHT22;13365;52.208;5.488;2023-02-10T08:34:16;7.30;97.60
25440;DHT22;13365;52.208;5.488;2023-02-10T08:36:43;7.40;97.60
25440;DHT22;13365;52.208;5.488;2023-02-10T08:39:09;7.50;97.70
25440;DHT22;13365;52.208;5.488;2023-02-10T08:41:35;7.70;97.80
25440;DHT22;13365;52.208;5.488;2023-02-10T08:44:00;7.70;98.00
25440;DHT22;13365;52.208;5.488;2023-02-10T08:46:26;7.70;97.90
25440;DHT22;13365;52.208;5.488;2023-02-10T08:48:52;7.60;97.90
25440;DHT22;13365;52.208;5.488;2023-02-10T08:51:18;7.80;97.90
25440;DHT22;13365;52.208;5.488;2023-02-10T08:53:43;7.80;97.80
25440;DHT22;13365;52.208;5.488;2023-02-10T08:56:13;7.70;98.00
25440;DHT22;13365;52.208;5.488;2023-02-10T08:58:38;7.80;98.00
25440;DHT22;13365;52.208;5.488;2023-02-10T09:01:11;7.90;98.00
25440;DHT22;13365;52.208;5.488;2023-02-10T09:03:37;8.00;97.80
25440;DHT22;13365;52.208;5.488;2023-02-10T09:06:03;8.10;97.60
25440;DHT22;13365;52.208;5.488;2023-02-10T09:08:29;7.90;97.70
25440;DHT22;13365;52.208;5.488;2023-02-10T09:10:54;8.00;97.90
25440;DHT22;13365;52.208;5.488;2023-02-10T09:13:20;8.10;98.00
25440;DHT22;13365;52.208;5.488;2023-02-10T09:15:46;8.10;98.10
25440;DHT22;13365;52.208;5.488;2023-02-10T09:18:12;8.30;98.20
25440;DHT22;13365;52.208;5.488;2023-02-10T09:20:38;8.50;98.10
25440;DHT22;13365;52.208;5.488;2023-02-10T09:23:04;8.60;97.70
25440;DHT22;13365;52.208;5.488;2023-02-10T09:25:29;8.60;97.90
25440;DHT22;13365;52.208;5.488;2023-02-10T09:27:55;8.70;98.00
25440;DHT22;13365;52.208;5.488;2023-02-10T09:30:23;8.60;97.80
25440;DHT22;13365;52.208;5.488;2023-02-10T09:32:49;8.60;97.80
25440;DHT22;13365;52.208;5.488;2023-02-10T09:35:15;8.60;98.10
25440;DHT22;13365;52.208;5.488;2023-02-10T09:37:41;8.80;98.50
25440;DHT22;13365;52.208;5.488;2023-02-10T09:40:09;8.70;99.00
25440;DHT22;13365;52.208;5.488;2023-02-10T09:42:56;8.80;99.20
25440;DHT22;13365;52.208;5.488;2023-02-10T09:45:26;9.00;99.50
25440;DHT22;13365;52.208;5.488;2023-02-10T09:51:08;9.20;97.40
25440;DHT22;13365;52.208;5.488;2023-02-10T09:53:31;9.20;97.00
25440;DHT22;13365;52.208;5.488;2023-02-10T09:56:02;9.10;97.10
25440;DHT22;13365;52.208;5.488;2023-02-10T10:01:28;9.20;97.90
25440;DHT22;13365;52.208;5.488;2023-02-10T10:03:58;9.20;98.40
25440;DHT22;13365;52.208;5.488;2023-02-10T10:06:29;9.20;98.50
25440;DHT22;13365;52.208;5.488;2023-02-10T10:11:37;9.20;98.30
25440;DHT22;13365;52.208;5.488;2023-02-10T10:14:04;9.40;98.60
25440;DHT22;13365;52.208;5.488;2023-02-10T10:17:00;9.60;98.50
25440;DHT22;13365;52.208;5.488;2023-02-10T10:22:25;9.80;97.60
25440;DHT22;13365;52.208;5.488;2023-02-10T10:25:20;10.00;97.50
25440;DHT22;13365;52.208;5.488;2023-02-10T10:30:46;9.80;97.60
25440;DHT22;13365;52.208;5.488;2023-02-10T10:33:31;9.80;98.10
25440;DHT22;13365;52.208;5.488;2023-02-10T10:35:59;9.90;97.80
25440;DHT22;13365;52.208;5.488;2023-02-10T10:38:32;10.00;97.60
25440;DHT22;13365;52.208;5.488;2023-02-10T10:41:13;10.20;97.40
25440;DHT22;13365;52.208;5.488;2023-02-10T10:43:48;10.40;97.50
25440;DHT22;13365;52.208;5.488;2023-02-10T10:49:00;10.90;96.60
25440;DHT22;13365;52.208;5.488;2023-02-10T10:51:27;11.00;96.10
25440;DHT22;13365;52.208;5.488;2023-02-10T10:53:54;11.20;96.30
25440;DHT22;13365;52.208;5.488;2023-02-10T10:56:23;11.50;95.70
25440;DHT22;13365;52.208;5.488;2023-02-10T10:58:50;11.50;95.90
25440;DHT22;13365;52.208;5.488;2023-02-10T11:01:17;11.60;95.40
25440;DHT22;13365;52.208;5.488;2023-02-10T11:03:43;11.70;95.30
25440;DHT22;13365;52.208;5.488;2023-02-10T11:06:14;11.80;95.40
25440;DHT22;13365;52.208;5.488;2023-02-10T11:08:55;11.80;95.00
25440;DHT22;13365;52.208;5.488;2023-02-10T11:11:35;12.10;94.60
25440;DHT22;13365;52.208;5.488;2023-02-10T11:14:04;12.20;94.10
25440;DHT22;13365;52.208;5.488;2023-02-10T11:16:43;12.30;94.30
25440;DHT22;13365;52.208;5.488;2023-02-10T11:19:18;12.50;93.80
25440;DHT22;13365;52.208;5.488;2023-02-10T11:21:43;12.60;93.50
25440;DHT22;13365;52.208;5.488;2023-02-10T11:27:01;12.90;93.40
25440;DHT22;13365;52.208;5.488;2023-02-10T11:29:33;12.60;92.50
25440;DHT22;13365;52.208;5.488;2023-02-10T11:31:59;12.60;93.10
25440;DHT22;13365;52.208;5.488;2023-02-10T11:34:28;13.00;92.70
25440;DHT22;13365;52.208;5.488;2023-02-10T11:36:57;13.10;92.00
25440;DHT22;13365;52.208;5.488;2023-02-10T11:39:33;13.20;92.30
25440;DHT22;13365;52.208;5.488;2023-02-10T11:42:11;13.50;91.70
25440;DHT22;13365;52.208;5.488;2023-02-10T11:44:41;13.40;91.60
25440;DHT22;13365;52.208;5.488;2023-02-10T11:47:14;13.40;91.40
25440;DHT22;13365;52.208;5.488;2023-02-10T11:49:48;13.60;91.00
25440;DHT22;13365;52.208;5.488;2023-02-10T11:52:16;13.40;90.90
25440;DHT22;13365;52.208;5.488;2023-02-10T11:54:42;13.60;90.70
25440;DHT22;13365;52.208;5.488;2023-02-10T12:00:31;13.70;90.50
25440;DHT22;13365;52.208;5.488;2023-02-10T12:03:13;13.90;90.40
25440;DHT22;13365;52.208;5.488;2023-02-10T12:23:04;14.00;88.70
25440;DHT22;13365;52.208;5.488;2023-02-10T12:28:43;14.00;88.30
25440;DHT22;13365;52.208;5.488;2023-02-10T12:32:17;14.40;87.00
25440;DHT22;13365;52.208;5.488;2023-02-10T12:48:28;14.00;83.90
25440;DHT22;13365;52.208;5.488;2023-02-10T12:53:36;14.40;85.00
25440;DHT22;13365;52.208;5.488;2023-02-10T12:56:07;14.60;84.80
25440;DHT22;13365;52.208;5.488;2023-02-10T12:58:39;14.70;83.70
25440;DHT22;13365;52.208;5.488;2023-02-10T13:01:16;14.70;83.30
25440;DHT22;13365;52.208;5.488;2023-02-10T13:03:47;14.20;81.30
25440;DHT22;13365;52.208;5.488;2023-02-10T13:09:23;13.70;84.10
25440;DHT22;13365;52.208;5.488;2023-02-10T13:14:41;13.30;85.70
25440;DHT22;13365;52.208;5.488;2023-02-10T13:17:08;13.40;85.90
25440;DHT22;13365;52.208;5.488;2023-02-10T13:25:10;14.00;86.30
25440;DHT22;13365;52.208;5.488;2023-02-10T13:33:45;13.70;84.90
25440;DHT22;13365;52.208;5.488;2023-02-10T13:36:11;13.70;85.30
25440;DHT22;13365;52.208;5.488;2023-02-10T13:38:38;13.80;85.90
25440;DHT22;13365;52.208;5.488;2023-02-10T13:41:04;13.80;85.70
25440;DHT22;13365;52.208;5.488;2023-02-10T13:43:55;13.80;85.20
25440;DHT22;13365;52.208;5.488;2023-02-10T13:46:25;13.60;86.10
25440;DHT22;13365;52.208;5.488;2023-02-10T13:48:53;13.90;86.30
25440;DHT22;13365;52.208;5.488;2023-02-10T13:51:35;13.90;86.30
25440;DHT22;13365;52.208;5.488;2023-02-10T13:54:02;13.90;84.50
25440;DHT22;13365;52.208;5.488;2023-02-10T13:56:31;13.80;84.70
25440;DHT22;13365;52.208;5.488;2023-02-10T13:59:04;13.60;84.30
25440;DHT22;13365;52.208;5.488;2023-02-10T14:04:01;13.50;83.80
25440;DHT22;13365;52.208;5.488;2023-02-10T14:06:41;13.00;83.30
25440;DHT22;13365;52.208;5.488;2023-02-10T14:12:00;12.80;85.50
25440;DHT22;13365;52.208;5.488;2023-02-10T14:14:36;13.00;85.20
25440;DHT22;13365;52.208;5.488;2023-02-10T14:19:42;12.90;85.50
25440;DHT22;13365;52.208;5.488;2023-02-10T14:24:49;13.10;87.80
25440;DHT22;13365;52.208;5.488;2023-02-10T14:27:16;13.60;86.80
25440;DHT22;13365;52.208;5.488;2023-02-10T14:29:53;13.80;85.80
25440;DHT22;13365;52.208;5.488;2023-02-10T14:32:20;13.60;85.60
25440;DHT22;13365;52.208;5.488;2023-02-10T14:35:00;13.50;85.80
25440;DHT22;13365;52.208;5.488;2023-02-10T14:37:26;13.60;85.60
25440;DHT22;13365;52.208;5.488;2023-02-10T14:39:57;13.30;86.10
25440;DHT22;13365;52.208;5.488;2023-02-10T14:42:29;13.30;86.70
25440;DHT22;13365;52.208;5.488;2023-02-10T14:44:57;13.20;87.50
25440;DHT22;13365;52.208;5.488;2023-02-10T14:47:35;13.20;87.60
25440;DHT22;13365;52.208;5.488;2023-02-10T14:50:02;13.20;88.40
25440;DHT22;13365;52.208;5.488;2023-02-10T14:52:34;13.20;88.30
25440;DHT22;13365;52.208;5.488;2023-02-10T14:55:00;13.00;89.00
25440;DHT22;13365;52.208;5.488;2023-02-10T14:57:27;13.00;89.70
25440;DHT22;13365;52.208;5.488;2023-02-10T14:59:57;12.90;90.00
25440;DHT22;13365;52.208;5.488;2023-02-10T15:02:25;12.60;90.20
25440;DHT22;13365;52.208;5.488;2023-02-10T15:04:55;12.70;90.60
25440;DHT22;13365;52.208;5.488;2023-02-10T15:07:25;13.00;90.50
25440;DHT22;13365;52.208;5.488;2023-02-10T15:09:51;13.10;90.20
25440;DHT22;13365;52.208;5.488;2023-02-10T15:12:19;13.10;90.10
25440;DHT22;13365;52.208;5.488;2023-02-10T15:14:57;13.20;90.10
25440;DHT22;13365;52.208;5.488;2023-02-10T15:17:46;13.20;89.70
25440;DHT22;13365;52.208;5.488;2023-02-10T15:22:41;13.10;90.00
25440;DHT22;13365;52.208;5.488;2023-02-10T15:31:01;12.80;90.60
25440;DHT22;13365;52.208;5.488;2023-02-10T15:33:39;12.80;91.00
25440;DHT22;13365;52.208;5.488;2023-02-10T15:36:24;12.80;91.20
25440;DHT22;13365;52.208;5.488;2023-02-10T15:38:52;12.90;91.10
25440;DHT22;13365;52.208;5.488;2023-02-10T15:44:00;13.10;90.90
25440;DHT22;13365;52.208;5.488;2023-02-10T15:46:28;13.10;90.70
25440;DHT22;13365;52.208;5.488;2023-02-10T15:49:07;12.70;90.80
25440;DHT22;13365;52.208;5.488;2023-02-10T15:51:38;12.60;91.20
25440;DHT22;13365;52.208;5.488;2023-02-10T15:54:04;12.50;91.20
25440;DHT22;13365;52.208;5.488;2023-02-10T15:56:30;12.40;91.40
25440;DHT22;13365;52.208;5.488;2023-02-10T15:58:55;12.30;91.60
25440;DHT22;13365;52.208;5.488;2023-02-10T16:01:21;12.30;91.70
25440;DHT22;13365;52.208;5.488;2023-02-10T16:03:46;12.40;91.80
25440;DHT22;13365;52.208;5.488;2023-02-10T16:06:15;12.30;91.60
25440;DHT22;13365;52.208;5.488;2023-02-10T16:08:42;12.50;91.70
25440;DHT22;13365;52.208;5.488;2023-02-10T16:11:12;12.50;91.50
25440;DHT22;13365;52.208;5.488;2023-02-10T16:13:38;12.50;91.50
25440;DHT22;13365;52.208;5.488;2023-02-10T16:16:06;12.50;91.50
25440;DHT22;13365;52.208;5.488;2023-02-10T16:18:36;12.50;91.30
25440;DHT22;13365;52.208;5.488;2023-02-10T16:21:01;12.30;91.50
25440;DHT22;13365;52.208;5.488;2023-02-10T16:23:28;12.50;91.80
25440;DHT22;13365;52.208;5.488;2023-02-10T16:25:55;12.50;91.70
25440;DHT22;13365;52.208;5.488;2023-02-10T16:28:20;12.50;91.70
25440;DHT22;13365;52.208;5.488;2023-02-10T16:30:46;12.40;91.60
25440;DHT22;13365;52.208;5.488;2023-02-10T16:33:12;12.50;91.80
25440;DHT22;13365;52.208;5.488;2023-02-10T16:35:38;12.50;92.00
25440;DHT22;13365;52.208;5.488;2023-02-10T16:38:04;12.50;91.80
25440;DHT22;13365;52.208;5.488;2023-02-10T16:40:35;12.40;92.00
25440;DHT22;13365;52.208;5.488;2023-02-10T16:43:01;12.30;92.30
25440;DHT22;13365;52.208;5.488;2023-02-10T16:45:29;12.20;92.50
25440;DHT22;13365;52.208;5.488;2023-02-10T16:47:56;12.10;92.70
25440;DHT22;13365;52.208;5.488;2023-02-10T16:50:40;11.90;93.20
25440;DHT22;13365;52.208;5.488;2023-02-10T16:53:07;11.90;93.50
25440;DHT22;13365;52.208;5.488;2023-02-10T16:55:34;11.80;93.60
25440;DHT22;13365;52.208;5.488;2023-02-10T16:57:59;11.90;93.70
25440;DHT22;13365;52.208;5.488;2023-02-10T17:00:26;12.00;93.50
25440;DHT22;13365;52.208;5.488;2023-02-10T17:02:53;11.90;93.60
25440;DHT22;13365;52.208;5.488;2023-02-10T17:05:19;11.80;93.80
25440;DHT22;13365;52.208;5.488;2023-02-10T17:07:45;11.90;94.10
25440;DHT22;13365;52.208;5.488;2023-02-10T17:10:17;11.90;94.00
25440;DHT22;13365;52.208;5.488;2023-02-10T17:12:44;12.00;93.90
25440;DHT22;13365;52.208;5.488;2023-02-10T17:15:10;11.90;94.30
25440;DHT22;13365;52.208;5.488;2023-02-10T17:17:36;11.90;94.60
25440;DHT22;13365;52.208;5.488;2023-02-10T17:20:03;11.70;94.80
25440;DHT22;13365;52.208;5.488;2023-02-10T17:22:29;11.70;95.00
25440;DHT22;13365;52.208;5.488;2023-02-10T17:24:55;11.70;95.20
25440;DHT22;13365;52.208;5.488;2023-02-10T17:27:20;11.60;95.20
25440;DHT22;13365;52.208;5.488;2023-02-10T17:29:46;11.80;95.20
25440;DHT22;13365;52.208;5.488;2023-02-10T17:32:11;11.70;95.30
25440;DHT22;13365;52.208;5.488;2023-02-10T17:34:37;11.60;95.70
25440;DHT22;13365;52.208;5.488;2023-02-10T17:37:03;11.70;95.70
25440;DHT22;13365;52.208;5.488;2023-02-10T17:39:31;11.80;95.80
25440;DHT22;13365;52.208;5.488;2023-02-10T17:42:04;11.50;96.10
25440;DHT22;13365;52.208;5.488;2023-02-10T17:44:30;11.40;96.30
25440;DHT22;13365;52.208;5.488;2023-02-10T17:46:57;11.50;96.40